sensor_id;sensor_type;location;lat;lon;timestamp;P1;durP1;ratioP1;P2;durP2;ratioP2
29534;SDS011;16475;52.650;8.116;2023-05-10T00:00:11;9.17;;;5.00;;
29534;SDS011;16475;52.650;8.116;2023-05-10T00:02:37;3.13;;;2.83;;
29534;SDS011;16475;52.650;8.116;2023-05-10T00:05:02;3.00;;;2.80;;
29534;SDS011;16475;52.650;8.116;2023-05-10T00:07:28;4.47;;;2.60;;
29534;SDS011;16475;52.650;8.116;2023-05-10T00:09:53;5.00;;;2.73;;
29534;SDS011;16475;52.650;8.116;2023-05-10T00:12:18;2.30;;;1.90;;
29534;SDS011;16475;52.650;8.116;2023-05-10T00:14:44;4.17;;;3.27;;
29534;SDS011;16475;52.650;8.116;2023-05-10T00:17:10;4.87;;;3.13;;
29534;SDS011;16475;52.650;8.116;2023-05-10T00:19:35;6.43;;;4.40;;
29534;SDS011;16475;52.650;8.116;2023-05-10T00:22:00;4.43;;;3.53;;
29534;SDS011;16475;52.650;8.116;2023-05-10T00:24:26;6.80;;;5.10;;
29534;SDS011;16475;52.650;8.116;2023-05-10T00:26:51;4.40;;;3.00;;
29534;SDS011;16475;52.650;8.116;2023-05-10T00:29:17;2.70;;;2.50;;
29534;SDS011;16475;52.650;8.116;2023-05-10T00:31:42;4.23;;;3.93;;
29534;SDS011;16475;52.650;8.116;2023-05-10T00:34:07;3.40;;;3.10;;
29534;SDS011;16475;52.650;8.116;2023-05-10T00:36:33;8.60;;;3.50;;
29534;SDS011;16475;52.650;8.116;2023-05-10T00:38:58;5.80;;;3.37;;
29534;SDS011;16475;52.650;8.116;2023-05-10T00:41:24;3.23;;;2.93;;
29534;SDS011;16475;52.650;8.116;2023-05-10T00:43:49;3.43;;;3.20;;
29534;SDS011;16475;52.650;8.116;2023-05-10T00:46:15;3.43;;;2.93;;
29534;SDS011;16475;52.650;8.116;2023-05-10T00:48:40;8.00;;;3.90;;
29534;SDS011;16475;52.650;8.116;2023-05-10T00:51:06;3.70;;;3.40;;
29534;SDS011;16475;52.650;8.116;2023-05-10T00:53:31;7.73;;;3.70;;
29534;SDS011;16475;52.650;8.116;2023-05-10T00:55:57;3.87;;;3.23;;
29534;SDS011;16475;52.650;8.116;2023-05-10T00:58:24;2.53;;;2.43;;
29534;SDS011;16475;52.650;8.116;2023-05-10T01:00:53;3.60;;;2.97;;
29534;SDS011;16475;52.650;8.116;2023-05-10T01:03:19;4.07;;;3.10;;
29534;SDS011;16475;52.650;8.116;2023-05-10T01:05:45;2.67;;;2.47;;
29534;SDS011;16475;52.650;8.116;2023-05-10T01:08:10;5.60;;;3.73;;
29534;SDS011;16475;52.650;8.116;2023-05-10T01:10:36;4.60;;;3.73;;
29534;SDS011;16475;52.650;8.116;2023-05-10T01:13:01;8.43;;;3.23;;
29534;SDS011;16475;52.650;8.116;2023-05-10T01:15:27;2.77;;;2.57;;
29534;SDS011;16475;52.650;8.116;2023-05-10T01:17:53;2.93;;;2.20;;
29534;SDS011;16475;52.650;8.116;2023-05-10T01:20:19;3.53;;;3.23;;
29534;SDS011;16475;52.650;8.116;2023-05-10T01:30:41;3.90;;;3.53;;
29534;SDS011;16475;52.650;8.116;2023-05-10T01:36:23;4.70;;;4.07;;
29534;SDS011;16475;52.650;8.116;2023-05-10T01:41:42;3.33;;;2.90;;
29534;SDS011;16475;52.650;8.116;2023-05-10T01:44:29;3.90;;;3.60;;
29534;SDS011;16475;52.650;8.116;2023-05-10T01:47:09;4.33;;;2.70;;
29534;SDS011;16475;52.650;8.116;2023-05-10T01:49:38;6.80;;;4.50;;
29534;SDS011;16475;52.650;8.116;2023-05-10T01:52:08;8.63;;;3.77;;
29534;SDS011;16475;52.650;8.116;2023-05-10T01:54:36;5.47;;;3.53;;
29534;SDS011;16475;52.650;8.116;2023-05-10T01:57:05;3.50;;;3.20;;
29534;SDS011;16475;52.650;8.116;2023-05-10T01:59:33;6.97;;;4.30;;
29534;SDS011;16475;52.650;8.116;2023-05-10T02:02:05;4.13;;;3.73;;
29534;SDS011;16475;52.650;8.116;2023-05-10T02:04:31;2.93;;;2.67;;
29534;SDS011;16475;52.650;8.116;2023-05-10T02:06:57;4.70;;;3.70;;
29534;SDS011;16475;52.650;8.116;2023-05-10T02:09:22;10.10;;;3.30;;
29534;SDS011;16475;52.650;8.116;2023-05-10T02:11:49;4.03;;;3.10;;
29534;SDS011;16475;52.650;8.116;2023-05-10T02:14:15;6.90;;;4.63;;
29534;SDS011;16475;52.650;8.116;2023-05-10T02:16:41;2.53;;;2.33;;
29534;SDS011;16475;52.650;8.116;2023-05-10T02:19:08;4.50;;;3.93;;
29534;SDS011;16475;52.650;8.116;2023-05-10T02:21:34;5.03;;;4.57;;
29534;SDS011;16475;52.650;8.116;2023-05-10T02:24:00;31.77;;;3.33;;
29534;SDS011;16475;52.650;8.116;2023-05-10T02:26:26;6.00;;;2.57;;
29534;SDS011;16475;52.650;8.116;2023-05-10T02:28:52;2.30;;;2.03;;
29534;SDS011;16475;52.650;8.116;2023-05-10T02:31:18;1.67;;;1.47;;
29534;SDS011;16475;52.650;8.116;2023-05-10T02:33:44;1.90;;;1.73;;
29534;SDS011;16475;52.650;8.116;2023-05-10T02:36:11;2.50;;;2.17;;
29534;SDS011;16475;52.650;8.116;2023-05-10T02:38:37;1.47;;;1.37;;
29534;SDS011;16475;52.650;8.116;2023-05-10T02:41:03;1.00;;;1.00;;
29534;SDS011;16475;52.650;8.116;2023-05-10T02:43:30;1.80;;;1.33;;
29534;SDS011;16475;52.650;8.116;2023-05-10T02:45:56;2.23;;;1.63;;
29534;SDS011;16475;52.650;8.116;2023-05-10T02:48:22;1.43;;;1.43;;
29534;SDS011;16475;52.650;8.116;2023-05-10T02:50:47;1.00;;;1.00;;
29534;SDS011;16475;52.650;8.116;2023-05-10T02:53:18;1.70;;;1.60;;
29534;SDS011;16475;52.650;8.116;2023-05-10T02:55:46;2.07;;;1.80;;
29534;SDS011;16475;52.650;8.116;2023-05-10T02:58:15;1.00;;;1.00;;
29534;SDS011;16475;52.650;8.116;2023-05-10T03:00:40;1.00;;;1.00;;
29534;SDS011;16475;52.650;8.116;2023-05-10T03:03:05;1.40;;;1.40;;
29534;SDS011;16475;52.650;8.116;2023-05-10T03:05:31;2.70;;;2.07;;
29534;SDS011;16475;52.650;8.116;2023-05-10T03:07:58;1.87;;;1.77;;
29534;SDS011;16475;52.650;8.116;2023-05-10T03:10:26;1.20;;;1.13;;
29534;SDS011;16475;52.650;8.116;2023-05-10T03:15:25;1.60;;;1.50;;
29534;SDS011;16475;52.650;8.116;2023-05-10T03:18:07;1.20;;;1.10;;
29534;SDS011;16475;52.650;8.116;2023-05-10T03:20:36;1.60;;;1.50;;
29534;SDS011;16475;52.650;8.116;2023-05-10T03:23:07;1.77;;;1.67;;
29534;SDS011;16475;52.650;8.116;2023-05-10T03:25:37;1.67;;;1.57;;
29534;SDS011;16475;52.650;8.116;2023-05-10T03:28:04;1.60;;;1.50;;
29534;SDS011;16475;52.650;8.116;2023-05-10T03:30:30;1.27;;;1.27;;
29534;SDS011;16475;52.650;8.116;2023-05-10T03:32:55;1.97;;;1.87;;
29534;SDS011;16475;52.650;8.116;2023-05-10T03:35:21;1.87;;;1.77;;
29534;SDS011;16475;52.650;8.116;2023-05-10T03:37:47;1.27;;;1.27;;
29534;SDS011;16475;52.650;8.116;2023-05-10T03:40:12;1.73;;;1.63;;
29534;SDS011;16475;52.650;8.116;2023-05-10T03:42:38;1.30;;;1.30;;
29534;SDS011;16475;52.650;8.116;2023-05-10T03:45:03;1.47;;;1.47;;
29534;SDS011;16475;52.650;8.116;2023-05-10T03:47:29;1.10;;;1.10;;
29534;SDS011;16475;52.650;8.116;2023-05-10T03:49:54;2.77;;;2.10;;
29534;SDS011;16475;52.650;8.116;2023-05-10T03:52:19;2.97;;;2.40;;
29534;SDS011;16475;52.650;8.116;2023-05-10T03:54:45;1.80;;;1.70;;
29534;SDS011;16475;52.650;8.116;2023-05-10T03:57:10;2.47;;;2.33;;
29534;SDS011;16475;52.650;8.116;2023-05-10T03:59:35;1.50;;;1.40;;
29534;SDS011;16475;52.650;8.116;2023-05-10T04:02:01;2.63;;;2.43;;
29534;SDS011;16475;52.650;8.116;2023-05-10T04:04:26;2.33;;;1.93;;
29534;SDS011;16475;52.650;8.116;2023-05-10T04:06:51;3.13;;;2.70;;
29534;SDS011;16475;52.650;8.116;2023-05-10T04:09:17;2.20;;;2.10;;
29534;SDS011;16475;52.650;8.116;2023-05-10T04:11:42;3.87;;;2.50;;
29534;SDS011;16475;52.650;8.116;2023-05-10T04:14:08;3.07;;;2.80;;
29534;SDS011;16475;52.650;8.116;2023-05-10T04:16:33;2.10;;;1.87;;
29534;SDS011;16475;52.650;8.116;2023-05-10T04:18:59;1.90;;;1.80;;
29534;SDS011;16475;52.650;8.116;2023-05-10T04:21:24;3.13;;;2.83;;
29534;SDS011;16475;52.650;8.116;2023-05-10T04:23:50;3.60;;;2.70;;
29534;SDS011;16475;52.650;8.116;2023-05-10T04:26:15;1.60;;;1.53;;
29534;SDS011;16475;52.650;8.116;2023-05-10T04:28:41;2.40;;;2.30;;
29534;SDS011;16475;52.650;8.116;2023-05-10T04:31:06;3.10;;;2.67;;
29534;SDS011;16475;52.650;8.116;2023-05-10T04:33:33;2.00;;;1.90;;
29534;SDS011;16475;52.650;8.116;2023-05-10T04:35:59;1.53;;;1.43;;
29534;SDS011;16475;52.650;8.116;2023-05-10T04:38:24;2.10;;;2.00;;
29534;SDS011;16475;52.650;8.116;2023-05-10T04:40:50;3.27;;;2.97;;
29534;SDS011;16475;52.650;8.116;2023-05-10T04:43:15;1.93;;;1.83;;
29534;SDS011;16475;52.650;8.116;2023-05-10T04:45:40;2.60;;;2.37;;
29534;SDS011;16475;52.650;8.116;2023-05-10T04:48:06;2.27;;;1.87;;
29534;SDS011;16475;52.650;8.116;2023-05-10T04:50:32;1.83;;;1.73;;
29534;SDS011;16475;52.650;8.116;2023-05-10T04:52:57;2.27;;;2.07;;
29534;SDS011;16475;52.650;8.116;2023-05-10T04:55:23;1.87;;;1.77;;
29534;SDS011;16475;52.650;8.116;2023-05-10T04:57:48;3.80;;;2.50;;
29534;SDS011;16475;52.650;8.116;2023-05-10T05:00:13;4.03;;;3.40;;
29534;SDS011;16475;52.650;8.116;2023-05-10T05:02:44;2.10;;;2.00;;
29534;SDS011;16475;52.650;8.116;2023-05-10T05:05:10;2.57;;;2.37;;
29534;SDS011;16475;52.650;8.116;2023-05-10T05:07:35;1.63;;;1.60;;
29534;SDS011;16475;52.650;8.116;2023-05-10T05:10:01;3.33;;;3.03;;
29534;SDS011;16475;52.650;8.116;2023-05-10T05:12:26;4.00;;;2.70;;
29534;SDS011;16475;52.650;8.116;2023-05-10T05:14:51;4.43;;;3.00;;
29534;SDS011;16475;52.650;8.116;2023-05-10T05:17:17;4.73;;;3.87;;
29534;SDS011;16475;52.650;8.116;2023-05-10T05:19:42;4.80;;;2.73;;
29534;SDS011;16475;52.650;8.116;2023-05-10T05:22:07;4.80;;;3.00;;
29534;SDS011;16475;52.650;8.116;2023-05-10T05:24:35;3.47;;;2.97;;
29534;SDS011;16475;52.650;8.116;2023-05-10T05:27:02;3.50;;;3.20;;
29534;SDS011;16475;52.650;8.116;2023-05-10T05:29:28;2.70;;;2.47;;
29534;SDS011;16475;52.650;8.116;2023-05-10T05:31:53;5.07;;;2.83;;
29534;SDS011;16475;52.650;8.116;2023-05-10T05:34:19;1.93;;;1.83;;
29534;SDS011;16475;52.650;8.116;2023-05-10T05:36:45;3.07;;;2.80;;
29534;SDS011;16475;52.650;8.116;2023-05-10T05:39:10;4.20;;;1.50;;
29534;SDS011;16475;52.650;8.116;2023-05-10T05:41:36;2.00;;;1.90;;
29534;SDS011;16475;52.650;8.116;2023-05-10T05:44:01;4.30;;;2.27;;
29534;SDS011;16475;52.650;8.116;2023-05-10T05:46:26;2.10;;;2.00;;
29534;SDS011;16475;52.650;8.116;2023-05-10T05:48:52;3.33;;;2.83;;
29534;SDS011;16475;52.650;8.116;2023-05-10T05:51:17;4.30;;;3.67;;
29534;SDS011;16475;52.650;8.116;2023-05-10T05:53:42;1.53;;;1.43;;
29534;SDS011;16475;52.650;8.116;2023-05-10T05:56:08;2.97;;;2.50;;
29534;SDS011;16475;52.650;8.116;2023-05-10T05:58:34;4.97;;;2.90;;
29534;SDS011;16475;52.650;8.116;2023-05-10T06:00:59;12.90;;;4.77;;
29534;SDS011;16475;52.650;8.116;2023-05-10T06:03:25;5.13;;;4.00;;
29534;SDS011;16475;52.650;8.116;2023-05-10T06:05:50;2.50;;;2.40;;
29534;SDS011;16475;52.650;8.116;2023-05-10T06:08:15;4.00;;;3.03;;
29534;SDS011;16475;52.650;8.116;2023-05-10T06:10:41;6.67;;;3.00;;
29534;SDS011;16475;52.650;8.116;2023-05-10T06:13:06;4.30;;;2.70;;
29534;SDS011;16475;52.650;8.116;2023-05-10T06:15:31;3.43;;;2.77;;
29534;SDS011;16475;52.650;8.116;2023-05-10T06:17:57;5.77;;;4.03;;
29534;SDS011;16475;52.650;8.116;2023-05-10T06:20:22;4.03;;;2.53;;
29534;SDS011;16475;52.650;8.116;2023-05-10T06:22:48;2.13;;;2.00;;
29534;SDS011;16475;52.650;8.116;2023-05-10T06:25:13;5.17;;;3.10;;
29534;SDS011;16475;52.650;8.116;2023-05-10T06:27:39;5.40;;;4.23;;
29534;SDS011;16475;52.650;8.116;2023-05-10T06:30:05;2.97;;;2.67;;
29534;SDS011;16475;52.650;8.116;2023-05-10T06:32:31;3.23;;;3.07;;
29534;SDS011;16475;52.650;8.116;2023-05-10T06:34:56;7.20;;;3.50;;
29534;SDS011;16475;52.650;8.116;2023-05-10T06:37:21;3.03;;;2.47;;
29534;SDS011;16475;52.650;8.116;2023-05-10T06:39:47;2.27;;;2.13;;
29534;SDS011;16475;52.650;8.116;2023-05-10T06:42:12;2.20;;;2.10;;
29534;SDS011;16475;52.650;8.116;2023-05-10T06:44:37;3.43;;;3.10;;
29534;SDS011;16475;52.650;8.116;2023-05-10T06:47:03;2.20;;;2.03;;
29534;SDS011;16475;52.650;8.116;2023-05-10T06:49:28;4.73;;;3.70;;
29534;SDS011;16475;52.650;8.116;2023-05-10T06:51:55;4.80;;;3.23;;
29534;SDS011;16475;52.650;8.116;2023-05-10T06:54:20;2.80;;;2.57;;
29534;SDS011;16475;52.650;8.116;2023-05-10T06:56:46;3.13;;;1.87;;
29534;SDS011;16475;52.650;8.116;2023-05-10T06:59:11;7.93;;;2.00;;
29534;SDS011;16475;52.650;8.116;2023-05-10T07:01:38;3.73;;;2.37;;
29534;SDS011;16475;52.650;8.116;2023-05-10T07:04:03;7.20;;;5.20;;
29534;SDS011;16475;52.650;8.116;2023-05-10T07:06:28;4.57;;;2.33;;
29534;SDS011;16475;52.650;8.116;2023-05-10T07:08:54;2.30;;;2.20;;
29534;SDS011;16475;52.650;8.116;2023-05-10T07:11:20;4.23;;;3.30;;
29534;SDS011;16475;52.650;8.116;2023-05-10T07:13:45;2.87;;;2.67;;
29534;SDS011;16475;52.650;8.116;2023-05-10T07:16:11;3.77;;;3.13;;
29534;SDS011;16475;52.650;8.116;2023-05-10T07:18:37;3.20;;;2.90;;
29534;SDS011;16475;52.650;8.116;2023-05-10T07:21:02;2.77;;;2.57;;
29534;SDS011;16475;52.650;8.116;2023-05-10T07:23:27;4.37;;;2.10;;
29534;SDS011;16475;52.650;8.116;2023-05-10T07:25:53;3.17;;;2.50;;
29534;SDS011;16475;52.650;8.116;2023-05-10T07:28:19;3.00;;;2.70;;
29534;SDS011;16475;52.650;8.116;2023-05-10T07:30:44;3.23;;;3.00;;
29534;SDS011;16475;52.650;8.116;2023-05-10T07:33:10;2.93;;;2.70;;
29534;SDS011;16475;52.650;8.116;2023-05-10T07:35:37;3.30;;;2.50;;
29534;SDS011;16475;52.650;8.116;2023-05-10T07:38:03;2.80;;;2.47;;
29534;SDS011;16475;52.650;8.116;2023-05-10T07:40:28;2.73;;;1.93;;
29534;SDS011;16475;52.650;8.116;2023-05-10T07:42:54;3.50;;;3.10;;
29534;SDS011;16475;52.650;8.116;2023-05-10T07:45:20;5.70;;;3.97;;
29534;SDS011;16475;52.650;8.116;2023-05-10T07:47:45;5.27;;;3.27;;
29534;SDS011;16475;52.650;8.116;2023-05-10T07:50:10;7.33;;;3.70;;
29534;SDS011;16475;52.650;8.116;2023-05-10T07:52:36;3.77;;;3.47;;
29534;SDS011;16475;52.650;8.116;2023-05-10T07:55:01;2.90;;;2.70;;
29534;SDS011;16475;52.650;8.116;2023-05-10T07:57:27;2.73;;;2.50;;
29534;SDS011;16475;52.650;8.116;2023-05-10T07:59:52;8.90;;;4.00;;
29534;SDS011;16475;52.650;8.116;2023-05-10T08:02:17;5.33;;;3.27;;
29534;SDS011;16475;52.650;8.116;2023-05-10T08:04:43;3.77;;;3.40;;
29534;SDS011;16475;52.650;8.116;2023-05-10T08:07:08;3.50;;;3.03;;
29534;SDS011;16475;52.650;8.116;2023-05-10T08:09:33;5.23;;;4.30;;
29534;SDS011;16475;52.650;8.116;2023-05-10T08:11:59;6.03;;;4.20;;
29534;SDS011;16475;52.650;8.116;2023-05-10T08:14:25;7.23;;;4.03;;
29534;SDS011;16475;52.650;8.116;2023-05-10T08:16:50;3.23;;;2.80;;
29534;SDS011;16475;52.650;8.116;2023-05-10T08:19:16;5.47;;;2.50;;
29534;SDS011;16475;52.650;8.116;2023-05-10T08:21:44;5.20;;;3.77;;
29534;SDS011;16475;52.650;8.116;2023-05-10T08:24:10;3.00;;;2.70;;
29534;SDS011;16475;52.650;8.116;2023-05-10T08:26:35;6.70;;;3.83;;
29534;SDS011;16475;52.650;8.116;2023-05-10T08:29:01;2.43;;;2.33;;
29534;SDS011;16475;52.650;8.116;2023-05-10T08:31:26;3.53;;;3.23;;
29534;SDS011;16475;52.650;8.116;2023-05-10T08:33:51;3.50;;;2.90;;
29534;SDS011;16475;52.650;8.116;2023-05-10T08:36:17;4.57;;;3.10;;
29534;SDS011;16475;52.650;8.116;2023-05-10T08:38:46;2.73;;;2.53;;
29534;SDS011;16475;52.650;8.116;2023-05-10T08:41:20;5.30;;;4.37;;
29534;SDS011;16475;52.650;8.116;2023-05-10T08:43:46;9.87;;;5.00;;
29534;SDS011;16475;52.650;8.116;2023-05-10T08:46:16;7.17;;;3.17;;
29534;SDS011;16475;52.650;8.116;2023-05-10T08:48:43;6.30;;;2.70;;
29534;SDS011;16475;52.650;8.116;2023-05-10T08:51:09;5.80;;;3.37;;
29534;SDS011;16475;52.650;8.116;2023-05-10T08:53:39;3.10;;;2.90;;
29534;SDS011;16475;52.650;8.116;2023-05-10T08:56:05;10.63;;;3.00;;
29534;SDS011;16475;52.650;8.116;2023-05-10T08:58:31;5.77;;;3.63;;
29534;SDS011;16475;52.650;8.116;2023-05-10T09:00:56;7.07;;;4.33;;
29534;SDS011;16475;52.650;8.116;2023-05-10T09:03:22;2.60;;;2.30;;
29534;SDS011;16475;52.650;8.116;2023-05-10T09:05:48;3.10;;;2.80;;
29534;SDS011;16475;52.650;8.116;2023-05-10T09:08:13;10.47;;;2.70;;
29534;SDS011;16475;52.650;8.116;2023-05-10T09:10:41;7.90;;;3.03;;
29534;SDS011;16475;52.650;8.116;2023-05-10T09:13:08;2.20;;;2.10;;
29534;SDS011;16475;52.650;8.116;2023-05-10T09:15:35;6.60;;;3.60;;
29534;SDS011;16475;52.650;8.116;2023-05-10T09:18:00;3.60;;;2.90;;
29534;SDS011;16475;52.650;8.116;2023-05-10T09:20:27;4.67;;;2.87;;
29534;SDS011;16475;52.650;8.116;2023-05-10T09:22:52;6.90;;;4.07;;
29534;SDS011;16475;52.650;8.116;2023-05-10T09:25:18;3.97;;;3.20;;
29534;SDS011;16475;52.650;8.116;2023-05-10T09:27:47;8.53;;;3.70;;
29534;SDS011;16475;52.650;8.116;2023-05-10T09:30:16;5.10;;;4.23;;
29534;SDS011;16475;52.650;8.116;2023-05-10T09:32:52;5.20;;;3.37;;
29534;SDS011;16475;52.650;8.116;2023-05-10T09:35:22;4.40;;;3.87;;
29534;SDS011;16475;52.650;8.116;2023-05-10T09:37:49;2.47;;;2.27;;
29534;SDS011;16475;52.650;8.116;2023-05-10T09:40:26;3.43;;;3.13;;
29534;SDS011;16475;52.650;8.116;2023-05-10T09:42:53;10.20;;;4.50;;
29534;SDS011;16475;52.650;8.116;2023-05-10T09:45:23;7.30;;;3.87;;
29534;SDS011;16475;52.650;8.116;2023-05-10T09:47:50;5.70;;;3.73;;
29534;SDS011;16475;52.650;8.116;2023-05-10T09:50:16;5.70;;;3.67;;
29534;SDS011;16475;52.650;8.116;2023-05-10T09:52:48;6.20;;;3.10;;
29534;SDS011;16475;52.650;8.116;2023-05-10T09:55:16;5.37;;;3.43;;
29534;SDS011;16475;52.650;8.116;2023-05-10T09:57:42;4.23;;;3.73;;
29534;SDS011;16475;52.650;8.116;2023-05-10T10:00:07;7.40;;;2.80;;
29534;SDS011;16475;52.650;8.116;2023-05-10T10:02:35;4.53;;;3.23;;
29534;SDS011;16475;52.650;8.116;2023-05-10T10:05:01;3.03;;;2.30;;
29534;SDS011;16475;52.650;8.116;2023-05-10T10:07:28;5.13;;;4.27;;
29534;SDS011;16475;52.650;8.116;2023-05-10T10:09:53;3.63;;;3.03;;
29534;SDS011;16475;52.650;8.116;2023-05-10T10:12:19;3.17;;;2.77;;
29534;SDS011;16475;52.650;8.116;2023-05-10T10:14:45;3.77;;;2.70;;
29534;SDS011;16475;52.650;8.116;2023-05-10T10:17:13;2.53;;;2.33;;
29534;SDS011;16475;52.650;8.116;2023-05-10T10:19:38;17.53;;;3.87;;
29534;SDS011;16475;52.650;8.116;2023-05-10T10:22:03;4.30;;;3.40;;
29534;SDS011;16475;52.650;8.116;2023-05-10T10:24:29;4.50;;;2.63;;
29534;SDS011;16475;52.650;8.116;2023-05-10T10:26:55;1.90;;;1.80;;
29534;SDS011;16475;52.650;8.116;2023-05-10T10:29:25;2.83;;;2.50;;
29534;SDS011;16475;52.650;8.116;2023-05-10T10:35:03;2.30;;;2.20;;
29534;SDS011;16475;52.650;8.116;2023-05-10T10:37:45;1.90;;;1.67;;
29534;SDS011;16475;52.650;8.116;2023-05-10T10:40:33;1.97;;;1.30;;
29534;SDS011;16475;52.650;8.116;2023-05-10T10:42:58;1.00;;;1.00;;
29534;SDS011;16475;52.650;8.116;2023-05-10T10:45:24;1.60;;;1.50;;
29534;SDS011;16475;52.650;8.116;2023-05-10T10:50:46;20.57;;;2.73;;
29534;SDS011;16475;52.650;8.116;2023-05-10T10:53:12;1.10;;;1.10;;
29534;SDS011;16475;52.650;8.116;2023-05-10T10:55:47;0.90;;;0.90;;
29534;SDS011;16475;52.650;8.116;2023-05-10T10:58:28;1.43;;;1.30;;
29534;SDS011;16475;52.650;8.116;2023-05-10T11:01:14;3.33;;;2.00;;
29534;SDS011;16475;52.650;8.116;2023-05-10T11:03:41;1.33;;;1.33;;
29534;SDS011;16475;52.650;8.116;2023-05-10T11:06:39;1.83;;;1.20;;
29534;SDS011;16475;52.650;8.116;2023-05-10T11:09:06;1.30;;;1.20;;
29534;SDS011;16475;52.650;8.116;2023-05-10T11:11:52;3.07;;;2.20;;
29534;SDS011;16475;52.650;8.116;2023-05-10T11:14:23;1.93;;;1.67;;
29534;SDS011;16475;52.650;8.116;2023-05-10T11:16:48;1.57;;;1.47;;
29534;SDS011;16475;52.650;8.116;2023-05-10T11:19:14;3.67;;;1.60;;
29534;SDS011;16475;52.650;8.116;2023-05-10T11:22:23;1.73;;;1.63;;
29534;SDS011;16475;52.650;8.116;2023-05-10T11:24:29;2.50;;;1.33;;
29534;SDS011;16475;52.650;8.116;2023-05-10T11:26:55;1.80;;;1.53;;
29534;SDS011;16475;52.650;8.116;2023-05-10T11:29:21;1.30;;;1.20;;
29534;SDS011;16475;52.650;8.116;2023-05-10T11:31:47;1.90;;;1.10;;
29534;SDS011;16475;52.650;8.116;2023-05-10T11:34:26;0.90;;;0.90;;
29534;SDS011;16475;52.650;8.116;2023-05-10T11:36:54;1.10;;;1.10;;
29534;SDS011;16475;52.650;8.116;2023-05-10T11:39:20;1.30;;;1.20;;
29534;SDS011;16475;52.650;8.116;2023-05-10T11:41:49;1.10;;;1.00;;
29534;SDS011;16475;52.650;8.116;2023-05-10T11:44:15;2.80;;;1.60;;
29534;SDS011;16475;52.650;8.116;2023-05-10T11:46:40;1.00;;;1.00;;
29534;SDS011;16475;52.650;8.116;2023-05-10T11:49:06;1.10;;;1.10;;
29534;SDS011;16475;52.650;8.116;2023-05-10T11:51:35;1.00;;;1.00;;
29534;SDS011;16475;52.650;8.116;2023-05-10T11:54:01;1.33;;;1.23;;
29534;SDS011;16475;52.650;8.116;2023-05-10T11:56:32;1.30;;;1.20;;
29534;SDS011;16475;52.650;8.116;2023-05-10T11:58:57;1.67;;;1.57;;
29534;SDS011;16475;52.650;8.116;2023-05-10T12:01:23;1.30;;;1.20;;
29534;SDS011;16475;52.650;8.116;2023-05-10T12:03:50;2.27;;;1.30;;
29534;SDS011;16475;52.650;8.116;2023-05-10T12:06:17;1.20;;;1.20;;
29534;SDS011;16475;52.650;8.116;2023-05-10T12:08:46;1.03;;;1.03;;
29534;SDS011;16475;52.650;8.116;2023-05-10T12:11:12;4.20;;;2.10;;
29534;SDS011;16475;52.650;8.116;2023-05-10T12:13:42;1.67;;;1.57;;
29534;SDS011;16475;52.650;8.116;2023-05-10T12:16:21;0.90;;;0.90;;
29534;SDS011;16475;52.650;8.116;2023-05-10T12:18:51;1.07;;;1.03;;
29534;SDS011;16475;52.650;8.116;2023-05-10T12:21:18;10.77;;;2.00;;
29534;SDS011;16475;52.650;8.116;2023-05-10T12:23:45;1.70;;;1.60;;
29534;SDS011;16475;52.650;8.116;2023-05-10T12:26:11;2.07;;;1.87;;
29534;SDS011;16475;52.650;8.116;2023-05-10T12:28:37;4.00;;;2.17;;
29534;SDS011;16475;52.650;8.116;2023-05-10T12:31:05;1.73;;;1.63;;
29534;SDS011;16475;52.650;8.116;2023-05-10T12:33:37;1.53;;;1.43;;
29534;SDS011;16475;52.650;8.116;2023-05-10T12:36:04;2.07;;;1.97;;
29534;SDS011;16475;52.650;8.116;2023-05-10T12:40:59;2.03;;;1.60;;
29534;SDS011;16475;52.650;8.116;2023-05-10T12:43:26;1.20;;;1.10;;
29534;SDS011;16475;52.650;8.116;2023-05-10T12:45:51;1.90;;;1.67;;
29534;SDS011;16475;52.650;8.116;2023-05-10T12:48:17;5.23;;;1.77;;
29534;SDS011;16475;52.650;8.116;2023-05-10T12:50:42;1.57;;;1.50;;
29534;SDS011;16475;52.650;8.116;2023-05-10T12:53:07;1.90;;;1.80;;
29534;SDS011;16475;52.650;8.116;2023-05-10T12:55:33;2.07;;;1.87;;
29534;SDS011;16475;52.650;8.116;2023-05-10T12:57:58;3.63;;;3.33;;
29534;SDS011;16475;52.650;8.116;2023-05-10T13:00:24;1.63;;;1.53;;
29534;SDS011;16475;52.650;8.116;2023-05-10T13:02:49;2.00;;;1.90;;
29534;SDS011;16475;52.650;8.116;2023-05-10T13:05:15;4.80;;;3.47;;
29534;SDS011;16475;52.650;8.116;2023-05-10T13:07:40;1.17;;;1.17;;
29534;SDS011;16475;52.650;8.116;2023-05-10T13:10:07;1.80;;;1.70;;
29534;SDS011;16475;52.650;8.116;2023-05-10T13:12:32;2.90;;;2.13;;
29534;SDS011;16475;52.650;8.116;2023-05-10T13:14:58;6.80;;;1.80;;
29534;SDS011;16475;52.650;8.116;2023-05-10T13:17:24;1.10;;;1.10;;
29534;SDS011;16475;52.650;8.116;2023-05-10T13:19:50;1.83;;;1.73;;
29534;SDS011;16475;52.650;8.116;2023-05-10T13:22:15;1.77;;;1.67;;
29534;SDS011;16475;52.650;8.116;2023-05-10T13:24:40;1.50;;;1.40;;
29534;SDS011;16475;52.650;8.116;2023-05-10T13:27:06;2.00;;;1.80;;
29534;SDS011;16475;52.650;8.116;2023-05-10T13:29:31;1.57;;;1.30;;
29534;SDS011;16475;52.650;8.116;2023-05-10T13:31:56;1.40;;;1.30;;
29534;SDS011;16475;52.650;8.116;2023-05-10T13:34:22;1.50;;;1.40;;
29534;SDS011;16475;52.650;8.116;2023-05-10T13:36:47;2.83;;;1.50;;
29534;SDS011;16475;52.650;8.116;2023-05-10T13:39:13;1.23;;;1.23;;
29534;SDS011;16475;52.650;8.116;2023-05-10T13:41:39;3.00;;;1.50;;
29534;SDS011;16475;52.650;8.116;2023-05-10T13:44:04;2.73;;;1.60;;
29534;SDS011;16475;52.650;8.116;2023-05-10T13:46:30;1.37;;;1.27;;
29534;SDS011;16475;52.650;8.116;2023-05-10T13:48:55;3.53;;;1.60;;
29534;SDS011;16475;52.650;8.116;2023-05-10T13:51:21;2.30;;;2.17;;
29534;SDS011;16475;52.650;8.116;2023-05-10T13:53:47;1.60;;;1.13;;
29534;SDS011;16475;52.650;8.116;2023-05-10T13:56:12;1.20;;;1.03;;
29534;SDS011;16475;52.650;8.116;2023-05-10T13:58:38;1.93;;;1.60;;
29534;SDS011;16475;52.650;8.116;2023-05-10T14:01:03;1.97;;;1.37;;
29534;SDS011;16475;52.650;8.116;2023-05-10T14:03:29;2.37;;;2.17;;
29534;SDS011;16475;52.650;8.116;2023-05-10T14:05:55;1.80;;;1.70;;
29534;SDS011;16475;52.650;8.116;2023-05-10T14:08:20;1.50;;;1.40;;
29534;SDS011;16475;52.650;8.116;2023-05-10T14:10:46;1.20;;;1.20;;
29534;SDS011;16475;52.650;8.116;2023-05-10T14:13:11;5.90;;;1.60;;
29534;SDS011;16475;52.650;8.116;2023-05-10T14:15:37;1.43;;;1.33;;
29534;SDS011;16475;52.650;8.116;2023-05-10T14:18:02;1.77;;;1.67;;
29534;SDS011;16475;52.650;8.116;2023-05-10T14:20:28;1.13;;;1.13;;
29534;SDS011;16475;52.650;8.116;2023-05-10T14:22:53;1.67;;;1.50;;
29534;SDS011;16475;52.650;8.116;2023-05-10T14:25:19;1.63;;;1.53;;
29534;SDS011;16475;52.650;8.116;2023-05-10T14:27:44;2.70;;;1.60;;
29534;SDS011;16475;52.650;8.116;2023-05-10T14:30:10;2.30;;;2.20;;
29534;SDS011;16475;52.650;8.116;2023-05-10T14:32:35;1.87;;;1.50;;
29534;SDS011;16475;52.650;8.116;2023-05-10T14:35:01;1.83;;;1.60;;
29534;SDS011;16475;52.650;8.116;2023-05-10T14:37:28;2.37;;;1.67;;
29534;SDS011;16475;52.650;8.116;2023-05-10T14:39:53;2.60;;;1.20;;
29534;SDS011;16475;52.650;8.116;2023-05-10T14:42:19;1.60;;;1.50;;
29534;SDS011;16475;52.650;8.116;2023-05-10T14:44:44;2.20;;;1.87;;
29534;SDS011;16475;52.650;8.116;2023-05-10T14:47:09;2.10;;;2.00;;
29534;SDS011;16475;52.650;8.116;2023-05-10T14:49:35;1.83;;;1.73;;
29534;SDS011;16475;52.650;8.116;2023-05-10T14:52:00;1.57;;;1.47;;
29534;SDS011;16475;52.650;8.116;2023-05-10T14:54:25;2.00;;;1.80;;
29534;SDS011;16475;52.650;8.116;2023-05-10T14:56:52;1.60;;;1.33;;
29534;SDS011;16475;52.650;8.116;2023-05-10T14:59:17;6.30;;;1.87;;
29534;SDS011;16475;52.650;8.116;2023-05-10T15:01:42;3.80;;;2.33;;
29534;SDS011;16475;52.650;8.116;2023-05-10T15:04:08;1.67;;;1.57;;
29534;SDS011;16475;52.650;8.116;2023-05-10T15:06:34;3.37;;;2.97;;
29534;SDS011;16475;52.650;8.116;2023-05-10T15:09:00;2.60;;;1.80;;